Christmas theme

*

Sretan Božić i Nova godina!

 

Merry Christmas and Happy New Year!

 

Merry Christmas and Happy New Year!

 

Sretan Božić i Nova godina!

 

METAR

METAR LDZA 091730Z 06005KT 030V100 4000 -RA BR FEW008 08/08 Q1006 NOSIG =
METAR LDSP 091730Z 03004KT 9999 BKN030 12/09 Q1007 NOSIG=
METAR LDDU 091730Z 09009KT 070V130 9999 FEW030 BKN045 11/09 Q1009 NOSIG =
METAR LDZD 091730Z 13006KT 090V150 9999 SCT040 OVC075 12/10 Q1006 TEMPO FM1800 29015G25KT 3000 TSRA FEW020CB =
METAR LDPL 091730Z 32003KT 9999 MIFG FEW010 10/09 Q1006 NOSIG=
METAR LDOS 091730Z 08007KT 8000 BKN043 07/06 Q1007=
METAR LDRI 091730Z 08005KT 040V140 9999 -RA FEW018 BKN029 BKN049
12/09 Q1006=

TAF

TAF LDZA 091725Z 0918/1018 VRB02KT 9999 BKN040
                 TX08/0918Z TN03/1006Z
           TEMPO 0918/1000 05008KT 3000 RA BR BKN012 OVC030
    PROB30 TEMPO 1001/1008 1200 BCFG
           BECMG 1009/1011 05012KT
    PROB30 TEMPO 1012/1018 05015G25KT=
TAF LDSP 091725Z 0918/1018 03007KT 9999 BKN030
                 TX12/0918Z TN07/1006Z
    PROB40 TEMPO 0919/0923 33015G25KT 3000 TSRA FEW020CB BKN030
           BECMG 1007/1009 05012KT
           TEMPO 1010/1018 05015G25KT=
TAF LDDU 091725Z 0918/1018 12010KT 9999 SCT025 BKN040
                 TX12/1012Z TN09/1017Z
    PROB40 TEMPO 0919/1003 2000 TSRA SCT008 FEW020CB BKN030
           BECMG 1012/1014 02018KT
           TEMPO 1016/1018 02025G35KT=
TAF LDZD 091725Z 0918/1018 08008KT 9999 SCT020 BKN040
                 TX11/0918Z TN05/1017Z
           TEMPO 0918/0922 29015G25KT 2000 TSRA SCT010 FEW020CB BKN030
           BECMG 1004/1006 06012KT
           TEMPO 1008/1018 06018G28KT=
TAF LDPL 091725Z 0918/1018 32005KT 9999 SCT020
                 TX11/1012Z TN05/1002Z
    PROB30 TEMPO 0918/1001 2000 MIFG BR
           BECMG 1001/1003 07015KT
           TEMPO 1003/1018 06018G30KT=
TAF LDOS 091725Z 0918/1018 13006KT 8000 BKN030
                 TX07/0918Z TN03/1004Z
    PROB30 TEMPO 0918/1000 3000 MIFG BR
           BECMG 0923/1001 35012KT
           TEMPO 1000/1008 2000 RA BR OVC004
    PROB30 TEMPO 1008/1012 BKN012=
TAF LDRI 091725Z 0918/1018 10006KT 9999 SCT015 BKN040
                 TX11/0918Z TN05/1017Z
    PROB30 TEMPO 0918/0920 TSRA FEW025CB
           BECMG 0921/0923 04015KT
           TEMPO 0923/1006 04018G35KT
           TEMPO 1004/1018 VRB10KT
    PROB40 TEMPO 1006/1018 04018G35KT=

SIGMET

AIRMET

LDZO AIRMET 10 VALID 091535/091800 LDZA-
LDZO ZAGREB FIR ISOL TS FCST WI N4337 E01644 - N4257 E01542 - N4431
E01341 - N4505 E01456 - N4337 E01644 TOP ABV FL100 STNR NC=
LDZO AIRMET 11 VALID 091600/091800 LDZA-
LDZO ZAGREB FIR MOD ICE FCST WI N4618 E01557 - N4617 E01652 - N4525
E01727 - N4254 E01528 - N4410 E01346 - N4526 E01411 - N4618 E01557
ABV FL050 STNR NC=
LDZO AIRMET 12 VALID 091600/092000 LDZA-
LDZO ZAGREB FIR MT OBSC FCST WI N4609 E01703 - N4328 E01716 - N4318
E01700 - N4338 E01614 - N4525 E01357 - N4620 E01608 - N4609 E01703
SFC/FL100 STNR NC=

Remark

Ukoliko se brzina i smjer vjetra ne mogu odrediti zbog privremenog kvara sustava/indikatora,
informacija o vjetru u METAR izvješću bit će prikazana kao "/////KT".

 

Disclaimer

 

In case of temporary system/sensor failure, wind speed and direction data will be represented as "/////KT" in METAR report.

 

If you cannot log in with your user account, please contact stjepko.jancijev@crocontrol.hr.
Specifically, the website deactivates user accounts that have not been used for more than 365 days, so they must be reactivated.
 

         

      Politika MET podataka      

 

Ukoliko se svojim korisničkim računom ne možete logirati na web stranicu, molim vas da se obratite na stjepko.jancijev@crocontrol.hr.

Naime, web stranica deaktivira korisničke račune koji nisu korišteni više od 365 dana te ih je potrebno ponovno aktivirati.